Time;durP1;ratioP1;P1;durP2;ratioP2;P2;SDS_P1;SDS_P2;PMS_P1;PMS_P2;Temp;Humidity;BMP_temperature;BMP_pressure;BME280_temperature;BME280_humidity;BME280_pressure;Samples;Min_cycle;Max_cycle;Signal;HPM_P1;HPM_P2
2022/08/03 00:01:56;;;;;;;3.13;2.80;;;21.00;99.90;;;;;;5030486;28;20194;-79
2022/08/03 00:04:40;;;;;;;2.95;2.70;;;21.00;99.90;;;;;;5026762;28;20208;-79
2022/08/03 00:07:24;;;;;;;2.88;2.58;;;20.90;99.90;;;;;;5030992;28;20196;-79
2022/08/03 00:10:08;;;;;;;3.17;2.80;;;20.90;99.90;;;;;;5029355;28;20215;-79
2022/08/03 00:12:53;;;;;;;4.68;3.10;;;20.90;99.90;;;;;;5027005;28;20450;-79
2022/08/03 00:15:42;;;;;;;4.05;2.85;;;20.80;99.90;;;;;;5031299;28;20199;-79
2022/08/03 00:18:26;;;;;;;4.10;2.83;;;20.80;99.90;;;;;;5021919;28;20247;-79
2022/08/03 00:21:10;;;;;;;4.05;2.60;;;20.80;99.90;;;;;;5030151;28;20195;-79
2022/08/03 00:23:55;;;;;;;5.15;2.92;;;20.80;99.90;;;;;;5030204;28;20227;-79
2022/08/03 00:26:39;;;;;;;4.22;3.08;;;20.70;99.90;;;;;;5033002;28;20258;-79
2022/08/03 00:29:23;;;;;;;2.95;2.72;;;20.70;99.90;;;;;;5034048;28;20591;-79
2022/08/03 00:32:07;;;;;;;4.05;3.00;;;20.60;99.90;;;;;;5029583;28;20196;-79
2022/08/03 00:34:51;;;;;;;4.65;3.10;;;20.60;99.90;;;;;;5036105;28;20544;-79
2022/08/03 00:37:36;;;;;;;3.85;2.65;;;20.60;99.90;;;;;;5033132;28;20401;-79
2022/08/03 00:40:20;;;;;;;6.57;2.75;;;20.50;99.90;;;;;;5032538;28;20258;-80
2022/08/03 00:43:06;;;;;;;3.47;2.80;;;20.50;99.90;;;;;;5031366;28;20721;-79
2022/08/03 00:45:50;;;;;;;2.97;2.38;;;20.50;99.90;;;;;;5035581;28;20218;-79
2022/08/03 00:48:35;;;;;;;5.55;2.80;;;20.50;99.90;;;;;;5032683;28;20752;-79
2022/08/03 00:51:20;;;;;;;4.10;2.83;;;20.40;99.90;;;;;;5035664;28;20202;-79
2022/08/03 00:54:04;;;;;;;2.90;2.65;;;20.40;99.90;;;;;;5036722;28;20215;-79
2022/08/03 00:56:49;;;;;;;3.65;2.85;;;20.40;99.90;;;;;;5034197;28;21775;-79
2022/08/03 00:59:33;;;;;;;5.43;2.80;;;20.40;99.90;;;;;;5026606;28;20736;-79
2022/08/03 01:02:18;;;;;;;4.80;3.25;;;20.30;99.90;;;;;;5042766;28;20191;-79
2022/08/03 01:05:03;;;;;;;4.60;3.03;;;20.30;99.90;;;;;;5042386;28;20231;-79
2022/08/03 01:08:37;;;;;;;3.45;3.15;;;20.20;99.90;;;;;;5043833;28;20786;-79
2022/08/03 01:11:46;;;;;;;5.38;3.08;;;20.20;99.90;;;;;;4983120;28;20196;-79
2022/08/03 01:14:40;;;;;;;4.53;2.97;;;20.20;99.90;;;;;;4990388;28;20204;-79
2022/08/03 01:17:33;;;;;;;6.00;2.97;;;20.20;99.90;;;;;;5033020;28;20244;-79
2022/08/03 01:20:20;;;;;;;4.32;3.20;;;20.10;99.90;;;;;;5027802;28;20276;-79
2022/08/03 01:23:36;;;;;;;3.40;3.10;;;20.10;99.90;;;;;;5032905;28;20191;-79
2022/08/03 01:26:20;;;;;;;5.25;3.72;;;20.10;99.90;;;;;;5032232;28;20195;-79
2022/08/03 01:29:24;;;;;;;3.28;3.03;;;20.00;99.90;;;;;;5034299;28;20222;-79
2022/08/03 01:32:12;;;;;;;6.38;3.65;;;20.00;99.90;;;;;;5014160;28;20195;-79
2022/08/03 01:35:06;;;;;;;3.92;3.63;;;20.00;99.90;;;;;;5032165;28;20662;-79
2022/08/03 01:38:01;;;;;;;3.65;3.20;;;20.00;99.90;;;;;;5032239;28;20195;-78
2022/08/03 01:40:46;;;;;;;3.60;3.28;;;19.90;99.90;;;;;;5031600;28;20207;-79
2022/08/03 01:43:30;;;;;;;5.90;3.50;;;19.90;99.90;;;;;;5031774;28;20722;-79
2022/08/03 01:46:16;;;;;;;4.25;3.72;;;19.80;99.90;;;;;;5030090;28;20215;-79
2022/08/03 01:49:02;;;;;;;3.95;3.58;;;19.80;99.90;;;;;;5028942;28;20254;-79
2022/08/03 01:51:47;;;;;;;3.58;3.20;;;19.70;99.90;;;;;;5029566;28;20863;-79
2022/08/03 01:54:35;;;;;;;4.03;3.63;;;19.70;99.90;;;;;;5032118;28;20202;-80
2022/08/03 01:57:21;;;;;;;3.70;3.40;;;19.70;99.90;;;;;;5027726;28;20273;-80
2022/08/03 02:00:08;;;;;;;6.75;3.78;;;19.70;99.90;;;;;;5024402;28;20293;-81
2022/08/03 02:02:54;;;;;;;3.92;3.60;;;19.60;99.90;;;;;;5030161;28;20210;-80
2022/08/03 02:05:39;;;;;;;4.80;4.13;;;19.60;99.90;;;;;;5024628;28;20187;-80
2022/08/03 02:08:26;;;;;;;5.88;3.67;;;19.60;99.90;;;;;;5024611;28;20223;-79
2022/08/03 02:11:11;;;;;;;4.30;3.58;;;19.60;99.90;;;;;;5031144;28;20271;-78
2022/08/03 02:13:57;;;;;;;4.75;3.65;;;19.60;99.90;;;;;;5028314;28;20184;-79
2022/08/03 02:16:43;;;;;;;4.90;3.40;;;19.50;99.90;;;;;;5024098;28;20257;-79
2022/08/03 02:19:29;;;;;;;4.60;4.20;;;19.50;99.90;;;;;;5031005;28;20215;-79
2022/08/03 02:22:14;;;;;;;4.33;3.50;;;19.50;99.90;;;;;;5027563;28;20186;-78
2022/08/03 02:24:58;;;;;;;4.75;3.25;;;19.40;99.90;;;;;;5027453;28;20210;-78
2022/08/03 02:27:53;;;;;;;5.05;3.85;;;19.40;99.90;;;;;;5027991;28;20227;-79
2022/08/03 02:30:41;;;;;;;4.35;3.33;;;19.40;99.90;;;;;;5023394;28;20344;-77
2022/08/03 02:33:30;;;;;;;4.07;3.67;;;19.30;99.90;;;;;;5023700;28;20191;-77
2022/08/03 02:36:18;;;;;;;4.33;3.80;;;19.30;99.90;;;;;;5027504;28;20175;-78
2022/08/03 02:39:04;;;;;;;4.88;4.30;;;19.30;99.90;;;;;;5022447;28;20983;-77
2022/08/03 02:41:50;;;;;;;3.95;3.65;;;19.20;99.90;;;;;;5027986;28;20215;-78
2022/08/03 02:44:37;;;;;;;5.47;3.97;;;19.20;99.90;;;;;;5021521;28;20224;-77
2022/08/03 02:47:22;;;;;;;6.33;3.67;;;19.20;99.90;;;;;;5022321;28;20195;-77
2022/08/03 02:50:09;;;;;;;4.32;3.92;;;19.10;99.90;;;;;;5026225;28;20239;-77
2022/08/03 02:52:56;;;;;;;4.43;3.83;;;19.10;99.90;;;;;;5024833;28;20207;-77
2022/08/03 02:55:41;;;;;;;6.10;4.10;;;19.10;99.90;;;;;;5025051;28;20249;-77
2022/08/03 02:58:27;;;;;;;5.90;3.93;;;19.10;99.90;;;;;;5021997;28;20250;-77
2022/08/03 03:01:12;;;;;;;4.93;4.07;;;19.00;99.90;;;;;;5025275;28;20186;-78
2022/08/03 03:03:57;;;;;;;8.25;3.90;;;19.00;99.90;;;;;;5025902;28;20226;-77
2022/08/03 03:06:41;;;;;;;4.25;3.80;;;19.00;99.90;;;;;;5022832;28;20211;-77
2022/08/03 03:09:26;;;;;;;5.85;3.60;;;19.00;99.90;;;;;;5029420;28;20235;-78
2022/08/03 03:12:12;;;;;;;6.10;4.00;;;19.00;99.90;;;;;;5028780;28;20552;-78
2022/08/03 03:14:56;;;;;;;5.50;4.00;;;18.90;99.90;;;;;;5019292;28;20223;-78
2022/08/03 03:17:42;;;;;;;4.78;4.32;;;18.90;99.90;;;;;;5026497;28;20597;-78
2022/08/03 03:20:28;;;;;;;4.73;4.20;;;18.90;99.90;;;;;;5021622;28;20266;-78
2022/08/03 03:23:13;;;;;;;7.30;4.43;;;18.90;99.90;;;;;;5020478;28;20223;-78
2022/08/03 03:25:58;;;;;;;7.37;4.40;;;18.80;99.90;;;;;;5025367;28;20254;-78
2022/08/03 03:28:42;;;;;;;5.88;4.47;;;18.80;99.90;;;;;;5018611;28;20321;-78
2022/08/03 03:31:27;;;;;;;6.60;4.70;;;18.80;99.90;;;;;;5027810;28;20184;-78
2022/08/03 03:34:11;;;;;;;4.75;4.28;;;18.70;99.90;;;;;;5029741;28;20222;-78
2022/08/03 03:36:56;;;;;;;6.23;4.57;;;18.70;99.90;;;;;;5017323;28;20323;-78
2022/08/03 03:39:40;;;;;;;5.60;4.47;;;18.70;99.90;;;;;;5027151;28;20305;-78
2022/08/03 03:42:25;;;;;;;8.70;4.90;;;18.60;99.90;;;;;;5023935;28;20199;-77
2022/08/03 03:45:10;;;;;;;6.20;4.53;;;18.60;99.90;;;;;;5020723;28;20183;-78
2022/08/03 03:47:55;;;;;;;6.10;4.87;;;18.50;99.90;;;;;;5020154;28;20211;-78
2022/08/03 03:50:39;;;;;;;5.30;4.63;;;18.60;99.90;;;;;;5020041;28;20258;-78
2022/08/03 03:53:24;;;;;;;10.37;5.67;;;18.50;99.90;;;;;;5025017;28;20272;-78
2022/08/03 03:56:08;;;;;;;6.67;5.30;;;18.50;99.90;;;;;;5030826;28;20258;-78
2022/08/03 03:58:52;;;;;;;7.33;4.87;;;18.50;99.90;;;;;;5028582;28;20231;-79
2022/08/03 04:01:38;;;;;;;5.47;4.97;;;18.50;99.90;;;;;;5026429;28;20249;-79
2022/08/03 04:13:39;;;;;;;6.00;5.40;;;18.40;99.90;;;;;;5029308;28;20210;-80
2022/08/03 04:16:27;;;;;;;6.57;5.13;;;18.40;99.90;;;;;;5027794;28;20667;-79
2022/08/03 04:19:25;;;;;;;5.90;5.30;;;18.40;99.90;;;;;;5028430;28;20211;-80
2022/08/03 04:22:12;;;;;;;8.03;6.03;;;18.40;99.90;;;;;;5026963;28;20261;-79
2022/08/03 04:25:02;;;;;;;9.00;5.27;;;18.30;99.90;;;;;;5035695;28;20318;-79
2022/08/03 04:27:48;;;;;;;11.83;6.00;;;18.30;99.90;;;;;;5026506;28;20462;-82
2022/08/03 04:30:36;;;;;;;10.47;5.80;;;18.40;99.90;;;;;;5026348;28;20238;-79
2022/08/03 04:33:22;;;;;;;6.43;5.53;;;18.40;99.90;;;;;;5027036;28;20235;-79
2022/08/03 04:36:08;;;;;;;8.37;5.50;;;18.30;99.90;;;;;;5030564;28;20741;-79
2022/08/03 04:38:59;;;;;;;9.73;4.80;;;18.40;99.90;;;;;;5022537;28;20350;-78
2022/08/03 04:41:44;;;;;;;6.10;4.70;;;18.40;99.90;;;;;;5028084;28;20218;-78
2022/08/03 04:44:32;;;;;;;5.57;5.07;;;18.40;99.90;;;;;;5025672;28;20234;-78
2022/08/03 04:47:17;;;;;;;5.13;4.67;;;18.40;99.90;;;;;;5040033;28;20195;-78
2022/08/03 04:50:03;;;;;;;6.27;5.00;;;18.40;99.90;;;;;;5027596;28;20270;-78
2022/08/03 04:52:48;;;;;;;6.13;5.20;;;18.40;99.90;;;;;;5030631;28;20195;-76
2022/08/03 04:55:33;;;;;;;6.63;5.03;;;18.50;99.90;;;;;;5027089;28;20330;-77
2022/08/03 04:58:17;;;;;;;6.10;5.23;;;18.50;99.90;;;;;;5028173;28;20203;-78
2022/08/03 05:01:02;;;;;;;6.93;5.00;;;18.50;99.90;;;;;;5034033;28;20215;-82
2022/08/03 05:03:46;;;;;;;5.47;4.97;;;18.60;99.90;;;;;;5031521;28;20268;-83
2022/08/03 05:06:30;;;;;;;9.93;4.90;;;18.70;99.90;;;;;;5034965;28;20212;-82
2022/08/03 05:09:15;;;;;;;6.40;4.80;;;18.70;99.90;;;;;;5030669;28;20217;-82
2022/08/03 05:11:59;;;;;;;7.73;4.93;;;18.80;99.90;;;;;;5032488;28;20199;-82
2022/08/03 05:14:43;;;;;;;6.07;4.80;;;18.90;99.90;;;;;;5032176;28;20202;-82
2022/08/03 05:17:27;;;;;;;5.97;4.63;;;19.00;99.90;;;;;;5033396;28;20227;-82
2022/08/03 05:20:11;;;;;;;5.67;4.50;;;19.00;99.90;;;;;;5027460;28;20219;-81
2022/08/03 05:22:56;;;;;;;7.07;5.00;;;19.10;99.90;;;;;;5028953;28;20766;-79
2022/08/03 05:25:40;;;;;;;5.67;4.80;;;19.30;99.90;;;;;;5025768;28;20611;-79
2022/08/03 05:28:24;;;;;;;5.50;4.70;;;19.30;99.90;;;;;;5016324;28;20193;-80
2022/08/03 05:31:08;;;;;;;5.88;5.28;;;19.50;99.90;;;;;;5032909;28;20218;-84
2022/08/03 05:33:53;;;;;;;5.10;4.70;;;19.60;99.90;;;;;;5025185;28;20238;-79
2022/08/03 05:36:38;;;;;;;6.75;5.35;;;19.60;99.90;;;;;;5024279;28;20677;-79
2022/08/03 05:39:22;;;;;;;7.70;4.80;;;19.70;99.90;;;;;;5024565;28;20691;-80
2022/08/03 05:42:06;;;;;;;8.00;5.10;;;19.80;99.90;;;;;;5028617;28;20685;-81
2022/08/03 05:44:50;;;;;;;5.82;5.32;;;19.90;99.90;;;;;;5030239;28;20749;-80
2022/08/03 05:47:34;;;;;;;5.93;5.03;;;20.00;99.90;;;;;;5024877;28;20199;-78
2022/08/03 05:50:19;;;;;;;9.65;5.20;;;20.10;99.90;;;;;;5023794;28;20227;-79
2022/08/03 05:53:04;;;;;;;6.00;5.30;;;20.10;99.90;;;;;;5040154;28;20278;-78
2022/08/03 05:55:47;;;;;;;6.53;5.30;;;20.20;99.90;;;;;;5020558;28;20200;-78
2022/08/03 05:58:32;;;;;;;10.82;5.00;;;20.30;99.90;;;;;;5030599;28;20219;-82
2022/08/03 06:01:17;;;;;;;8.35;4.45;;;20.50;99.90;;;;;;5021451;28;20191;-82
2022/08/03 06:04:01;;;;;;;9.25;4.88;;;20.50;99.90;;;;;;5032958;28;20658;-83
2022/08/03 06:06:46;;;;;;;5.80;4.72;;;20.60;99.90;;;;;;5030032;28;20198;-79
2022/08/03 06:09:30;;;;;;;5.95;4.57;;;20.70;99.90;;;;;;5028329;28;20289;-80
2022/08/03 06:12:15;;;;;;;10.55;5.03;;;20.80;99.90;;;;;;5031577;28;20192;-78
2022/08/03 06:14:59;;;;;;;6.55;4.38;;;20.90;99.90;;;;;;5030227;28;20272;-82
2022/08/03 06:17:45;;;;;;;9.65;5.28;;;20.90;99.90;;;;;;5025367;28;20187;-80
2022/08/03 06:20:30;;;;;;;11.77;5.15;;;21.00;99.90;;;;;;5020834;28;20227;-80
2022/08/03 06:23:14;;;;;;;8.38;4.93;;;21.00;99.90;;;;;;5027904;28;20245;-80
2022/08/03 06:25:58;;;;;;;5.47;4.57;;;21.10;99.90;;;;;;5028588;28;20230;-81
2022/08/03 06:28:44;;;;;;;11.07;4.97;;;21.20;99.90;;;;;;5020881;28;20227;-80
2022/08/03 06:31:29;;;;;;;6.13;4.53;;;21.20;99.90;;;;;;5029197;28;20203;-80
2022/08/03 06:34:13;;;;;;;6.47;4.82;;;21.30;99.90;;;;;;5031499;28;20211;-80
2022/08/03 06:36:57;;;;;;;12.75;4.93;;;21.40;99.90;;;;;;5027054;28;20544;-77
2022/08/03 06:39:49;;;;;;;6.40;4.85;;;21.40;99.90;;;;;;5015520;28;20222;-76
2022/08/03 06:42:37;;;;;;;14.50;4.68;;;21.50;99.90;;;;;;5020329;28;20262;-76
2022/08/03 06:45:21;;;;;;;9.27;5.10;;;21.50;99.90;;;;;;5016581;28;20219;-77
2022/08/03 06:48:07;;;;;;;9.00;4.85;;;21.60;99.90;;;;;;5020060;28;20570;-77
2022/08/03 06:50:51;;;;;;;11.45;4.40;;;21.60;99.90;;;;;;5018793;28;20259;-76
2022/08/03 06:53:35;;;;;;;11.77;4.32;;;21.70;99.90;;;;;;5025332;28;20261;-76
2022/08/03 06:56:19;;;;;;;10.02;4.57;;;21.80;99.90;;;;;;5023603;28;20226;-76
2022/08/03 06:59:04;;;;;;;13.07;4.18;;;21.90;99.90;;;;;;5024725;28;20219;-77
2022/08/03 07:01:48;;;;;;;4.97;3.83;;;22.00;99.90;;;;;;5026621;28;20227;-77
2022/08/03 07:04:32;;;;;;;7.65;4.15;;;22.10;99.90;;;;;;5022220;28;20187;-76
2022/08/03 07:07:16;;;;;;;6.50;3.60;;;22.20;99.90;;;;;;5024218;28;20661;-76
2022/08/03 07:10:01;;;;;;;9.05;3.42;;;22.30;99.90;;;;;;5026298;28;20594;-76
2022/08/03 07:12:46;;;;;;;6.78;3.83;;;22.40;99.90;;;;;;5027397;28;20252;-77
2022/08/03 07:15:30;;;;;;;7.53;3.50;;;22.50;99.90;;;;;;5027318;28;20203;-79
2022/08/03 07:18:15;;;;;;;5.72;3.42;;;22.50;99.90;;;;;;5019639;28;20604;-78
2022/08/03 07:20:59;;;;;;;5.95;3.85;;;22.60;99.90;;;;;;5028597;28;20191;-78
2022/08/03 07:23:43;;;;;;;7.75;4.03;;;22.70;99.90;;;;;;5018882;28;20191;-78
2022/08/03 07:26:27;;;;;;;7.53;3.40;;;22.80;99.90;;;;;;5024549;28;20691;-78
2022/08/03 07:29:11;;;;;;;10.38;3.88;;;22.90;99.90;;;;;;5031240;28;20257;-79
2022/08/03 07:31:55;;;;;;;9.25;4.03;;;23.00;99.90;;;;;;5030611;28;20214;-78
2022/08/03 07:34:39;;;;;;;7.35;3.55;;;23.10;99.90;;;;;;5032779;28;20199;-78
2022/08/03 07:37:24;;;;;;;8.73;4.22;;;23.20;99.90;;;;;;5033021;28;20196;-76
2022/08/03 07:40:09;;;;;;;6.75;3.78;;;23.30;99.90;;;;;;5028728;28;20320;-76
2022/08/03 07:42:53;;;;;;;9.10;4.22;;;23.30;99.90;;;;;;5026267;28;20226;-77
2022/08/03 07:45:38;;;;;;;5.70;3.90;;;23.40;99.90;;;;;;5022696;28;20570;-76
2022/08/03 07:48:22;;;;;;;9.63;3.42;;;23.50;99.90;;;;;;5026256;28;20227;-78
2022/08/03 07:51:07;;;;;;;6.70;2.83;;;23.50;99.90;;;;;;5025482;28;20285;-78
2022/08/03 07:53:51;;;;;;;5.70;3.78;;;23.70;99.90;;;;;;5029373;28;20677;-78
2022/08/03 07:56:36;;;;;;;5.05;3.33;;;23.80;99.90;;;;;;5029073;28;20195;-78
2022/08/03 07:59:20;;;;;;;3.35;2.88;;;23.80;99.90;;;;;;5030501;28;20222;-78
2022/08/03 08:02:06;;;;;;;4.38;3.38;;;23.90;99.90;;;;;;5031062;28;20234;-78
2022/08/03 08:04:50;;;;;;;7.47;3.05;;;24.00;99.90;;;;;;5031216;28;20559;-78
2022/08/03 08:07:34;;;;;;;4.90;2.97;;;24.10;99.90;;;;;;5028201;28;20211;-78
2022/08/03 08:10:18;;;;;;;4.30;3.03;;;24.10;99.90;;;;;;5031755;28;20223;-79
2022/08/03 08:13:04;;;;;;;8.40;3.08;;;24.20;99.90;;;;;;5029604;28;20204;-81
2022/08/03 08:15:48;;;;;;;6.35;2.92;;;24.30;99.90;;;;;;5034767;28;20195;-80
2022/08/03 08:18:33;;;;;;;3.97;2.83;;;24.30;99.90;;;;;;5035451;28;20216;-80
2022/08/03 08:21:17;;;;;;;5.20;2.47;;;24.50;99.90;;;;;;5033219;28;20641;-80
2022/08/03 08:24:04;;;;;;;3.65;2.03;;;24.50;99.90;;;;;;5027127;28;20191;-82
2022/08/03 08:26:48;;;;;;;7.93;2.95;;;24.60;99.90;;;;;;5032498;28;20219;-80
2022/08/03 08:29:32;;;;;;;5.88;2.08;;;24.70;99.90;;;;;;5034377;28;20270;-80
2022/08/03 08:32:16;;;;;;;6.00;2.25;;;24.90;99.90;;;;;;5034300;28;20219;-80
2022/08/03 08:35:00;;;;;;;3.45;2.08;;;24.90;99.90;;;;;;5033454;28;20568;-80
2022/08/03 08:37:45;;;;;;;6.05;2.28;;;25.00;99.90;;;;;;5035699;28;20203;-80
2022/08/03 08:40:29;;;;;;;3.50;1.92;;;25.10;99.90;;;;;;5031659;28;20249;-80
2022/08/03 08:43:14;;;;;;;3.85;2.17;;;25.20;99.90;;;;;;5031342;28;20192;-81
2022/08/03 08:45:58;;;;;;;6.80;2.17;;;25.30;99.90;;;;;;5033257;28;20199;-80
2022/08/03 08:48:45;;;;;;;6.22;2.30;;;25.40;99.90;;;;;;5032291;28;20300;-80
2022/08/03 08:51:33;;;;;;;5.07;2.05;;;25.50;99.90;;;;;;5032434;28;20315;-80
2022/08/03 08:54:21;;;;;;;5.07;1.83;;;25.50;99.90;;;;;;5034718;28;20199;-80
2022/08/03 08:57:08;;;;;;;6.78;1.77;;;25.60;99.90;;;;;;5029312;28;20195;-80
2022/08/03 08:59:55;;;;;;;4.90;1.73;;;25.70;99.90;;;;;;5038205;28;20270;-82
2022/08/03 09:02:41;;;;;;;3.10;1.85;;;25.80;99.90;;;;;;5035544;28;20214;-80
2022/08/03 09:05:26;;;;;;;6.15;2.00;;;25.90;99.90;;;;;;5034516;28;20254;-81
2022/08/03 09:08:10;;;;;;;4.40;1.90;;;25.90;99.90;;;;;;5035241;28;20238;-81
2022/08/03 09:10:54;;;;;;;2.78;1.80;;;25.90;99.90;;;;;;5033676;28;20920;-81
2022/08/03 09:13:38;;;;;;;4.57;2.28;;;26.00;99.90;;;;;;5034311;28;20187;-81
2022/08/03 09:16:23;;;;;;;2.60;1.70;;;26.00;99.90;;;;;;5043011;28;20195;-81
2022/08/03 09:19:13;;;;;;;5.88;2.00;;;26.10;99.90;;;;;;5034484;28;20263;-82
2022/08/03 09:22:16;;;;;;;4.38;1.73;;;26.20;99.90;;;;;;5028639;28;20250;-80
2022/08/03 09:25:06;;;;;;;7.75;1.83;;;26.40;99.90;;;;;;5032738;28;20191;-81
2022/08/03 09:27:50;;;;;;;3.88;1.65;;;26.40;99.90;;;;;;5035640;28;20223;-81
2022/08/03 09:30:36;;;;;;;7.85;2.10;;;26.50;99.90;;;;;;5034740;28;20223;-81
2022/08/03 09:33:20;;;;;;;6.60;1.85;;;26.50;99.90;;;;;;5031780;28;20195;-82
2022/08/03 09:36:05;;;;;;;6.47;1.80;;;26.60;99.90;;;;;;5037148;28;20195;-80
2022/08/03 09:39:10;;;;;;;4.15;1.70;;;26.60;99.90;;;;;;5032913;28;20273;-81
2022/08/03 09:42:05;;;;;;;5.32;1.48;;;26.70;99.90;;;;;;5033167;28;20310;-80
2022/08/03 09:44:50;;;;;;;5.15;2.00;;;26.70;99.90;;;;;;5035160;28;20178;-81
2022/08/03 09:47:35;;;;;;;4.75;1.65;;;26.90;99.90;;;;;;5037188;28;20238;-81
2022/08/03 09:50:20;;;;;;;3.33;1.55;;;27.00;99.90;;;;;;5028584;28;20231;-83
2022/08/03 09:53:04;;;;;;;6.88;1.65;;;27.10;99.90;;;;;;5027202;28;20666;-83
2022/08/03 09:55:55;;;;;;;7.00;2.05;;;27.10;99.90;;;;;;5027372;28;20210;-83
2022/08/03 09:58:46;;;;;;;5.18;1.45;;;27.20;99.90;;;;;;5029846;28;20215;-84
2022/08/03 10:01:34;;;;;;;4.82;1.42;;;27.30;99.90;;;;;;5038341;28;20195;-83
2022/08/03 10:04:18;;;;;;;7.55;1.60;;;27.30;99.90;;;;;;5028894;28;20238;-83
2022/08/03 10:07:08;;;;;;;5.78;1.90;;;27.40;99.90;;;;;;5029940;28;20227;-80
2022/08/03 10:09:58;;;;;;;8.68;2.20;;;27.40;99.90;;;;;;5024987;28;20296;-79
2022/08/03 10:12:43;;;;;;;4.43;1.52;;;27.50;99.90;;;;;;5042380;28;20218;-80
2022/08/03 10:15:28;;;;;;;5.43;1.70;;;27.50;99.90;;;;;;5028820;28;20200;-80
2022/08/03 10:18:13;;;;;;;5.45;1.77;;;27.60;99.90;;;;;;5027632;28;20191;-81
2022/08/03 10:21:04;;;;;;;6.32;1.98;;;27.60;99.90;;;;;;5028068;28;20250;-80
2022/08/03 10:23:51;;;;;;;8.48;1.88;;;27.60;99.90;;;;;;5026603;28;20306;-78
2022/08/03 10:26:38;;;;;;;6.65;1.95;;;27.80;99.90;;;;;;5025510;28;20190;-79
2022/08/03 10:29:25;;;;;;;6.38;2.22;;;27.90;99.90;;;;;;5027834;28;20418;-78
2022/08/03 10:32:27;;;;;;;5.45;2.00;;;28.00;99.90;;;;;;5025154;28;20199;-78
2022/08/03 10:35:20;;;;;;;2.58;1.67;;;28.00;99.90;;;;;;5031425;28;20249;-79
2022/08/03 10:38:11;;;;;;;6.90;1.95;;;28.00;99.90;;;;;;5029495;28;20188;-78
2022/08/03 10:40:58;;;;;;;6.32;1.85;;;28.10;99.90;;;;;;5019753;28;20243;-79
2022/08/03 10:43:51;;;;;;;4.07;1.85;;;28.10;99.90;;;;;;5029207;28;20262;-78
2022/08/03 10:46:38;;;;;;;5.53;1.98;;;28.20;99.90;;;;;;5039319;28;20241;-77
2022/08/03 10:49:23;;;;;;;5.95;1.90;;;28.20;99.90;;;;;;5024505;28;20302;-79
2022/08/03 10:52:08;;;;;;;9.90;1.70;;;28.20;99.90;;;;;;5028224;28;20616;-78
2022/08/03 10:57:57;;;;;;;5.80;2.03;;;28.40;99.90;;;;;;5025880;28;20253;-78
2022/08/03 11:00:49;;;;;;;3.13;1.70;;;28.40;99.90;;;;;;5029671;28;20303;-78
2022/08/03 11:03:53;;;;;;;5.80;1.90;;;28.40;99.90;;;;;;5026183;28;20236;-79
2022/08/03 11:06:38;;;;;;;9.63;1.90;;;28.50;99.90;;;;;;5026322;28;20266;-78
2022/08/03 11:09:23;;;;;;;3.00;1.33;;;28.50;99.90;;;;;;5024738;28;20254;-79
2022/08/03 11:12:25;;;;;;;6.45;1.75;;;28.50;99.90;;;;;;5035079;28;20326;-79
2022/08/03 11:15:09;;;;;;;4.18;1.80;;;28.60;99.90;;;;;;5023523;28;20222;-78
2022/08/03 11:18:10;;;;;;;7.05;1.95;;;28.60;99.90;;;;;;5029090;28;20246;-78
2022/08/03 11:20:56;;;;;;;7.70;1.80;;;28.70;99.90;;;;;;5026400;28;20211;-78
2022/08/03 11:23:47;;;;;;;5.50;1.90;;;28.70;99.90;;;;;;5024186;28;20218;-78
2022/08/03 11:26:33;;;;;;;3.38;1.70;;;28.70;99.90;;;;;;5030070;28;20708;-81
2022/08/03 11:29:29;;;;;;;7.53;1.92;;;28.70;99.90;;;;;;5027564;28;20281;-78
2022/08/03 11:32:36;;;;;;;6.93;1.60;;;28.80;99.90;;;;;;5023356;28;20195;-78
2022/08/03 11:35:23;;;;;;;5.38;1.80;;;28.80;99.90;;;;;;5031054;28;20223;-79
2022/08/03 11:38:09;;;;;;;9.50;1.90;;;28.90;99.90;;;;;;5030919;28;20258;-79
2022/08/03 11:40:53;;;;;;;5.60;1.55;;;28.90;99.90;;;;;;5027030;28;20219;-79
2022/08/03 11:43:42;;;;;;;5.60;1.90;;;28.90;99.90;;;;;;5030647;28;20272;-78
2022/08/03 11:46:37;;;;;;;5.30;2.08;;;28.90;99.90;;;;;;5028463;28;20238;-79
2022/08/03 11:49:23;;;;;;;7.47;2.13;;;28.90;99.90;;;;;;5020367;28;20243;-78
2022/08/03 11:52:08;;;;;;;8.48;2.00;;;28.90;99.90;;;;;;5029104;28;20283;-78
2022/08/03 11:54:53;;;;;;;3.03;1.52;;;29.00;99.90;;;;;;5024111;28;20639;-78
2022/08/03 11:57:38;;;;;;;4.60;1.65;;;29.00;99.90;;;;;;5026890;28;20198;-78
2022/08/03 12:00:30;;;;;;;6.78;1.65;;;29.20;99.90;;;;;;5024572;28;20219;-79
2022/08/03 12:03:24;;;;;;;4.68;1.80;;;29.30;99.90;;;;;;5029068;28;20254;-79
2022/08/03 12:06:13;;;;;;;6.95;1.98;;;29.40;99.90;;;;;;5028042;28;20203;-79
2022/08/03 12:08:58;;;;;;;6.05;1.80;;;29.50;99.90;;;;;;5030714;28;20263;-79
2022/08/03 12:11:42;;;;;;;9.20;2.33;;;29.50;99.90;;;;;;5028333;28;20729;-79
2022/08/03 12:14:28;;;;;;;5.93;1.60;;;29.60;99.90;;;;;;5021155;28;20208;-78
2022/08/03 12:17:13;;;;;;;7.43;2.00;;;29.60;99.90;;;;;;5032709;28;20242;-79
2022/08/03 12:19:57;;;;;;;4.63;1.75;;;29.60;99.90;;;;;;5031708;28;20219;-79
2022/08/03 12:22:41;;;;;;;5.82;1.70;;;29.70;99.90;;;;;;5033846;28;20358;-79
2022/08/03 12:25:26;;;;;;;3.65;1.38;;;29.70;99.90;;;;;;5032038;28;20269;-79
2022/08/03 12:28:17;;;;;;;3.95;1.50;;;29.70;99.90;;;;;;5031278;28;20187;-79
2022/08/03 12:31:06;;;;;;;5.68;1.30;;;29.80;99.90;;;;;;5030234;28;20223;-78
2022/08/03 12:33:54;;;;;;;3.72;1.65;;;29.90;99.90;;;;;;5027652;28;20203;-78
2022/08/03 12:36:54;;;;;;;5.35;1.88;;;29.90;99.90;;;;;;5031232;28;20202;-77
2022/08/03 12:39:39;;;;;;;8.38;1.80;;;30.00;99.90;;;;;;5029555;28;20231;-78
2022/08/03 12:42:34;;;;;;;4.95;1.88;;;30.00;99.90;;;;;;5029731;28;20195;-78
2022/08/03 12:45:22;;;;;;;7.07;1.90;;;30.00;99.90;;;;;;5030088;28;20239;-79
2022/08/03 12:48:11;;;;;;;5.53;1.55;;;30.00;99.90;;;;;;5028286;28;20196;-78
2022/08/03 12:51:07;;;;;;;8.13;1.63;;;30.10;99.90;;;;;;5021388;28;20196;-78
2022/08/03 12:53:53;;;;;;;3.42;1.90;;;30.10;99.90;;;;;;5025385;28;20247;-78
2022/08/03 12:57:13;;;;;;;11.18;1.92;;;30.00;99.90;;;;;;5029380;28;20262;-78
2022/08/03 13:00:10;;;;;;;5.07;1.63;;;30.10;99.90;;;;;;5029798;28;20223;-82
2022/08/03 13:03:07;;;;;;;8.13;1.92;;;30.10;99.90;;;;;;5037804;28;20204;-81
2022/08/03 13:05:52;;;;;;;7.70;1.70;;;30.00;99.90;;;;;;5028409;28;20199;-81
2022/08/03 13:08:37;;;;;;;6.25;1.80;;;30.10;99.90;;;;;;5029740;28;20255;-81
2022/08/03 13:11:26;;;;;;;6.68;1.70;;;30.20;99.90;;;;;;5028036;28;20219;-81
2022/08/03 13:14:10;;;;;;;4.80;1.80;;;30.10;99.90;;;;;;5027867;28;20183;-81
2022/08/03 13:16:55;;;;;;;4.05;1.83;;;30.20;99.90;;;;;;5029387;28;20251;-81
2022/08/03 13:19:39;;;;;;;6.22;1.90;;;30.20;99.90;;;;;;5032467;28;20230;-81
2022/08/03 13:22:31;;;;;;;7.78;1.70;;;30.40;99.90;;;;;;5025336;28;20223;-81
2022/08/03 13:25:16;;;;;;;3.72;1.70;;;30.40;99.90;;;;;;5025683;28;21095;-81
2022/08/03 13:28:03;;;;;;;7.43;1.83;;;30.40;99.90;;;;;;5031858;28;20550;-81
2022/08/03 13:30:48;;;;;;;7.25;1.75;;;30.50;99.90;;;;;;5030910;28;20246;-81
2022/08/03 13:33:32;;;;;;;8.55;1.90;;;30.50;99.90;;;;;;5034739;28;20235;-81
2022/08/03 13:36:16;;;;;;;9.90;2.13;;;30.50;99.90;;;;;;5026283;28;20414;-81
2022/08/03 13:39:01;;;;;;;5.78;2.00;;;30.60;99.90;;;;;;5031876;28;20215;-80
2022/08/03 13:41:45;;;;;;;5.68;1.85;;;30.70;99.90;;;;;;5029409;28;20211;-81
2022/08/03 13:44:35;;;;;;;10.15;2.35;;;30.80;99.90;;;;;;5032133;28;20207;-81
2022/08/03 13:47:20;;;;;;;7.50;2.15;;;30.90;99.90;;;;;;5032847;28;20203;-81
2022/08/03 13:50:04;;;;;;;8.35;1.90;;;30.90;99.90;;;;;;5033001;28;20219;-80
2022/08/03 13:52:48;;;;;;;7.43;1.73;;;30.90;99.90;;;;;;5030648;28;20234;-81
2022/08/03 13:55:33;;;;;;;7.45;1.75;;;30.90;99.90;;;;;;5032301;28;20211;-81
2022/08/03 13:58:17;;;;;;;7.07;1.70;;;30.90;99.90;;;;;;5034828;28;20223;-81
2022/08/03 14:01:01;;;;;;;7.18;1.60;;;30.90;99.90;;;;;;5036167;28;20226;-81
2022/08/03 14:03:47;;;;;;;6.25;1.45;;;31.00;99.90;;;;;;5030939;28;20195;-81
2022/08/03 14:06:31;;;;;;;3.97;1.95;;;31.00;99.90;;;;;;5031163;28;20199;-81
2022/08/03 14:09:16;;;;;;;3.80;1.60;;;31.00;99.90;;;;;;5028829;28;20574;-81
2022/08/03 14:12:01;;;;;;;4.57;1.48;;;31.10;99.90;;;;;;5033443;28;20199;-81
2022/08/03 14:14:45;;;;;;;5.55;1.85;;;31.10;99.90;;;;;;5032548;28;20192;-81
2022/08/03 14:17:29;;;;;;;11.75;1.88;;;31.10;99.90;;;;;;5034570;28;20235;-81
2022/08/03 14:20:14;;;;;;;8.75;1.48;;;31.20;99.90;;;;;;5036434;28;20258;-81
2022/08/03 14:22:59;;;;;;;7.18;1.60;;;31.20;99.90;;;;;;5025803;28;20183;-81
2022/08/03 14:25:43;;;;;;;8.25;1.50;;;31.20;99.90;;;;;;5035325;28;20195;-81
2022/08/03 14:28:27;;;;;;;6.13;1.67;;;31.20;99.90;;;;;;5027243;28;20214;-81
2022/08/03 14:31:11;;;;;;;9.95;2.15;;;31.30;99.90;;;;;;5031184;28;20198;-81
2022/08/03 14:33:56;;;;;;;10.68;1.90;;;31.30;99.90;;;;;;5033122;28;20226;-81
2022/08/03 14:36:41;;;;;;;5.93;1.70;;;31.30;99.90;;;;;;5031037;28;20211;-81
2022/08/03 14:39:25;;;;;;;5.88;2.25;;;31.20;99.90;;;;;;5025525;28;20273;-81